sensor_id;sensor_type;location;lat;lon;timestamp;P1;durP1;ratioP1;P2;durP2;ratioP2
79412;SDS011;68863;49.528;11.010;2023-06-24T00:00:19;5.20;;;2.45;;
79412;SDS011;68863;49.528;11.010;2023-06-24T00:01:19;5.57;;;2.58;;
79412;SDS011;68863;49.528;11.010;2023-06-24T00:02:20;6.30;;;2.72;;
79412;SDS011;68863;49.528;11.010;2023-06-24T00:03:23;5.97;;;2.70;;
79412;SDS011;68863;49.528;11.010;2023-06-24T00:04:24;7.95;;;2.72;;
79412;SDS011;68863;49.528;11.010;2023-06-24T00:05:24;6.00;;;2.50;;
79412;SDS011;68863;49.528;11.010;2023-06-24T00:06:24;6.77;;;2.50;;
79412;SDS011;68863;49.528;11.010;2023-06-24T00:07:26;8.00;;;2.80;;
79412;SDS011;68863;49.528;11.010;2023-06-24T00:08:26;7.55;;;2.55;;
79412;SDS011;68863;49.528;11.010;2023-06-24T00:09:33;6.80;;;3.00;;
79412;SDS011;68863;49.528;11.010;2023-06-24T00:10:34;6.80;;;2.37;;
79412;SDS011;68863;49.528;11.010;2023-06-24T00:11:34;6.45;;;2.22;;
79412;SDS011;68863;49.528;11.010;2023-06-24T00:12:34;7.03;;;2.40;;
79412;SDS011;68863;49.528;11.010;2023-06-24T00:13:35;6.43;;;2.58;;
79412;SDS011;68863;49.528;11.010;2023-06-24T00:14:35;6.03;;;2.53;;
79412;SDS011;68863;49.528;11.010;2023-06-24T00:15:36;6.07;;;2.50;;
79412;SDS011;68863;49.528;11.010;2023-06-24T00:16:37;5.60;;;2.50;;
79412;SDS011;68863;49.528;11.010;2023-06-24T00:17:37;6.07;;;2.73;;
79412;SDS011;68863;49.528;11.010;2023-06-24T00:18:38;7.07;;;2.63;;
79412;SDS011;68863;49.528;11.010;2023-06-24T00:19:44;6.68;;;2.63;;
79412;SDS011;68863;49.528;11.010;2023-06-24T00:20:44;9.00;;;3.00;;
79412;SDS011;68863;49.528;11.010;2023-06-24T00:21:45;6.25;;;2.65;;
79412;SDS011;68863;49.528;11.010;2023-06-24T00:22:45;6.50;;;2.67;;
79412;SDS011;68863;49.528;11.010;2023-06-24T00:23:49;8.68;;;2.80;;
79412;SDS011;68863;49.528;11.010;2023-06-24T00:24:50;6.18;;;2.40;;
79412;SDS011;68863;49.528;11.010;2023-06-24T00:25:52;5.82;;;2.67;;
79412;SDS011;68863;49.528;11.010;2023-06-24T00:26:52;6.53;;;3.03;;
79412;SDS011;68863;49.528;11.010;2023-06-24T00:27:53;6.28;;;2.72;;
79412;SDS011;68863;49.528;11.010;2023-06-24T00:28:53;6.35;;;2.97;;
79412;SDS011;68863;49.528;11.010;2023-06-24T00:29:54;6.72;;;2.75;;
79412;SDS011;68863;49.528;11.010;2023-06-24T00:30:54;6.63;;;2.83;;
79412;SDS011;68863;49.528;11.010;2023-06-24T00:31:54;6.25;;;2.70;;
79412;SDS011;68863;49.528;11.010;2023-06-24T00:32:55;7.55;;;2.75;;
79412;SDS011;68863;49.528;11.010;2023-06-24T00:33:56;7.40;;;2.75;;
79412;SDS011;68863;49.528;11.010;2023-06-24T00:34:56;6.20;;;2.40;;
79412;SDS011;68863;49.528;11.010;2023-06-24T00:35:59;6.45;;;2.90;;
79412;SDS011;68863;49.528;11.010;2023-06-24T00:37:00;6.68;;;2.53;;
79412;SDS011;68863;49.528;11.010;2023-06-24T00:38:03;7.18;;;2.90;;
79412;SDS011;68863;49.528;11.010;2023-06-24T00:39:04;6.00;;;2.67;;
79412;SDS011;68863;49.528;11.010;2023-06-24T00:40:05;6.32;;;2.65;;
79412;SDS011;68863;49.528;11.010;2023-06-24T00:41:06;6.28;;;3.03;;
79412;SDS011;68863;49.528;11.010;2023-06-24T00:42:07;6.13;;;2.63;;
79412;SDS011;68863;49.528;11.010;2023-06-24T00:43:07;6.95;;;2.75;;
79412;SDS011;68863;49.528;11.010;2023-06-24T00:44:08;6.55;;;3.10;;
79412;SDS011;68863;49.528;11.010;2023-06-24T00:45:09;7.68;;;3.10;;
79412;SDS011;68863;49.528;11.010;2023-06-24T00:46:10;6.38;;;2.85;;
79412;SDS011;68863;49.528;11.010;2023-06-24T00:47:10;7.00;;;2.90;;
79412;SDS011;68863;49.528;11.010;2023-06-24T00:48:11;6.05;;;3.00;;
79412;SDS011;68863;49.528;11.010;2023-06-24T00:49:11;7.32;;;2.85;;
79412;SDS011;68863;49.528;11.010;2023-06-24T00:50:16;6.53;;;2.92;;
79412;SDS011;68863;49.528;11.010;2023-06-24T00:51:17;7.65;;;3.00;;
79412;SDS011;68863;49.528;11.010;2023-06-24T00:52:19;6.88;;;2.88;;
79412;SDS011;68863;49.528;11.010;2023-06-24T00:53:19;6.80;;;2.37;;
79412;SDS011;68863;49.528;11.010;2023-06-24T00:54:21;6.10;;;2.33;;
79412;SDS011;68863;49.528;11.010;2023-06-24T00:55:21;6.13;;;2.75;;
79412;SDS011;68863;49.528;11.010;2023-06-24T00:56:22;5.70;;;2.45;;
79412;SDS011;68863;49.528;11.010;2023-06-24T00:57:34;6.72;;;3.35;;
79412;SDS011;68863;49.528;11.010;2023-06-24T00:58:37;5.70;;;2.45;;
79412;SDS011;68863;49.528;11.010;2023-06-24T00:59:39;6.63;;;2.92;;
79412;SDS011;68863;49.528;11.010;2023-06-24T01:00:43;6.00;;;2.92;;
79412;SDS011;68863;49.528;11.010;2023-06-24T01:01:46;6.80;;;2.95;;
79412;SDS011;68863;49.528;11.010;2023-06-24T01:02:46;7.55;;;3.20;;
79412;SDS011;68863;49.528;11.010;2023-06-24T01:03:48;6.07;;;2.75;;
79412;SDS011;68863;49.528;11.010;2023-06-24T01:04:48;6.55;;;2.80;;
79412;SDS011;68863;49.528;11.010;2023-06-24T01:05:48;6.80;;;3.22;;
79412;SDS011;68863;49.528;11.010;2023-06-24T01:06:49;6.30;;;2.38;;
79412;SDS011;68863;49.528;11.010;2023-06-24T01:07:49;5.95;;;2.50;;
79412;SDS011;68863;49.528;11.010;2023-06-24T01:08:58;7.03;;;2.72;;
79412;SDS011;68863;49.528;11.010;2023-06-24T01:10:00;7.05;;;2.67;;
79412;SDS011;68863;49.528;11.010;2023-06-24T01:11:00;6.63;;;2.88;;
79412;SDS011;68863;49.528;11.010;2023-06-24T01:12:01;5.82;;;2.60;;
79412;SDS011;68863;49.528;11.010;2023-06-24T01:13:02;6.68;;;2.83;;
79412;SDS011;68863;49.528;11.010;2023-06-24T01:14:04;6.28;;;2.80;;
79412;SDS011;68863;49.528;11.010;2023-06-24T01:15:07;6.03;;;2.75;;
79412;SDS011;68863;49.528;11.010;2023-06-24T01:16:10;5.80;;;2.38;;
79412;SDS011;68863;49.528;11.010;2023-06-24T01:17:28;6.43;;;2.83;;
79412;SDS011;68863;49.528;11.010;2023-06-24T01:29:42;6.82;;;2.90;;
79412;SDS011;68863;49.528;11.010;2023-06-24T01:31:05;6.68;;;3.10;;
79412;SDS011;68863;49.528;11.010;2023-06-24T01:32:19;7.40;;;2.42;;
79412;SDS011;68863;49.528;11.010;2023-06-24T01:33:32;6.57;;;2.97;;
79412;SDS011;68863;49.528;11.010;2023-06-24T01:34:43;7.32;;;2.92;;
79412;SDS011;68863;49.528;11.010;2023-06-24T01:36:00;6.85;;;2.97;;
79412;SDS011;68863;49.528;11.010;2023-06-24T01:37:08;5.40;;;2.45;;
79412;SDS011;68863;49.528;11.010;2023-06-24T01:38:16;5.82;;;2.47;;
79412;SDS011;68863;49.528;11.010;2023-06-24T01:39:24;6.70;;;3.05;;
79412;SDS011;68863;49.528;11.010;2023-06-24T01:40:28;6.55;;;2.80;;
79412;SDS011;68863;49.528;11.010;2023-06-24T01:41:59;8.30;;;2.60;;
79412;SDS011;68863;49.528;11.010;2023-06-24T01:43:05;7.88;;;2.80;;
79412;SDS011;68863;49.528;11.010;2023-06-24T01:44:09;6.47;;;2.47;;
79412;SDS011;68863;49.528;11.010;2023-06-24T01:45:14;5.28;;;2.45;;
79412;SDS011;68863;49.528;11.010;2023-06-24T01:46:22;5.78;;;2.58;;
79412;SDS011;68863;49.528;11.010;2023-06-24T01:47:25;6.95;;;3.50;;
79412;SDS011;68863;49.528;11.010;2023-06-24T01:48:27;6.60;;;3.03;;
79412;SDS011;68863;49.528;11.010;2023-06-24T01:49:30;6.22;;;2.92;;
79412;SDS011;68863;49.528;11.010;2023-06-24T01:50:33;6.70;;;2.78;;
79412;SDS011;68863;49.528;11.010;2023-06-24T01:51:36;5.55;;;2.55;;
79412;SDS011;68863;49.528;11.010;2023-06-24T01:52:41;5.70;;;2.40;;
79412;SDS011;68863;49.528;11.010;2023-06-24T01:53:48;5.47;;;2.33;;
79412;SDS011;68863;49.528;11.010;2023-06-24T01:54:51;5.43;;;2.45;;
79412;SDS011;68863;49.528;11.010;2023-06-24T01:55:55;6.22;;;2.70;;
79412;SDS011;68863;49.528;11.010;2023-06-24T01:56:59;6.65;;;2.47;;
79412;SDS011;68863;49.528;11.010;2023-06-24T01:58:00;7.80;;;2.80;;
79412;SDS011;68863;49.528;11.010;2023-06-24T01:59:03;5.88;;;2.78;;
79412;SDS011;68863;49.528;11.010;2023-06-24T02:00:04;6.30;;;3.28;;
79412;SDS011;68863;49.528;11.010;2023-06-24T02:01:07;5.95;;;3.03;;
79412;SDS011;68863;49.528;11.010;2023-06-24T02:02:08;5.32;;;2.40;;
79412;SDS011;68863;49.528;11.010;2023-06-24T02:03:09;6.43;;;2.40;;
79412;SDS011;68863;49.528;11.010;2023-06-24T02:04:09;5.45;;;2.70;;
79412;SDS011;68863;49.528;11.010;2023-06-24T02:05:11;5.97;;;2.63;;
79412;SDS011;68863;49.528;11.010;2023-06-24T02:06:13;4.95;;;1.98;;
79412;SDS011;68863;49.528;11.010;2023-06-24T02:07:14;5.22;;;2.58;;
79412;SDS011;68863;49.528;11.010;2023-06-24T02:08:15;6.25;;;3.08;;
79412;SDS011;68863;49.528;11.010;2023-06-24T02:09:17;6.75;;;3.15;;
79412;SDS011;68863;49.528;11.010;2023-06-24T02:10:19;6.15;;;2.50;;
79412;SDS011;68863;49.528;11.010;2023-06-24T02:11:21;5.22;;;2.40;;
79412;SDS011;68863;49.528;11.010;2023-06-24T02:12:24;5.55;;;2.47;;
79412;SDS011;68863;49.528;11.010;2023-06-24T02:13:26;6.07;;;2.85;;
79412;SDS011;68863;49.528;11.010;2023-06-24T02:14:31;7.03;;;2.38;;
79412;SDS011;68863;49.528;11.010;2023-06-24T02:15:33;5.82;;;2.35;;
79412;SDS011;68863;49.528;11.010;2023-06-24T02:17:36;4.18;;;1.67;;
79412;SDS011;68863;49.528;11.010;2023-06-24T02:18:39;6.72;;;2.08;;
79412;SDS011;68863;49.528;11.010;2023-06-24T02:19:42;6.05;;;2.38;;
79412;SDS011;68863;49.528;11.010;2023-06-24T02:20:43;5.22;;;2.10;;
79412;SDS011;68863;49.528;11.010;2023-06-24T02:21:45;5.43;;;2.17;;
79412;SDS011;68863;49.528;11.010;2023-06-24T02:22:46;5.00;;;2.10;;
79412;SDS011;68863;49.528;11.010;2023-06-24T02:23:48;5.30;;;2.20;;
79412;SDS011;68863;49.528;11.010;2023-06-24T02:24:49;5.50;;;2.55;;
79412;SDS011;68863;49.528;11.010;2023-06-24T02:25:50;4.70;;;2.00;;
79412;SDS011;68863;49.528;11.010;2023-06-24T02:26:51;6.60;;;2.53;;
79412;SDS011;68863;49.528;11.010;2023-06-24T02:27:53;4.55;;;2.03;;
79412;SDS011;68863;49.528;11.010;2023-06-24T02:28:54;6.15;;;1.98;;
79412;SDS011;68863;49.528;11.010;2023-06-24T02:29:55;5.28;;;2.35;;
79412;SDS011;68863;49.528;11.010;2023-06-24T02:30:58;4.75;;;1.98;;
79412;SDS011;68863;49.528;11.010;2023-06-24T02:31:59;5.60;;;2.00;;
79412;SDS011;68863;49.528;11.010;2023-06-24T02:32:59;6.00;;;2.53;;
79412;SDS011;68863;49.528;11.010;2023-06-24T02:33:59;4.97;;;2.40;;
79412;SDS011;68863;49.528;11.010;2023-06-24T02:35:00;6.00;;;2.60;;
79412;SDS011;68863;49.528;11.010;2023-06-24T02:36:00;6.28;;;2.10;;
79412;SDS011;68863;49.528;11.010;2023-06-24T02:37:00;5.70;;;2.40;;
79412;SDS011;68863;49.528;11.010;2023-06-24T02:38:01;5.93;;;2.65;;
79412;SDS011;68863;49.528;11.010;2023-06-24T02:39:02;6.72;;;1.98;;
79412;SDS011;68863;49.528;11.010;2023-06-24T02:40:02;5.55;;;2.58;;
79412;SDS011;68863;49.528;11.010;2023-06-24T02:41:05;4.70;;;1.83;;
79412;SDS011;68863;49.528;11.010;2023-06-24T02:42:06;5.45;;;1.90;;
79412;SDS011;68863;49.528;11.010;2023-06-24T02:43:06;6.07;;;2.30;;
79412;SDS011;68863;49.528;11.010;2023-06-24T02:44:06;4.63;;;1.93;;
79412;SDS011;68863;49.528;11.010;2023-06-24T02:45:07;6.50;;;2.38;;
79412;SDS011;68863;49.528;11.010;2023-06-24T02:46:08;4.97;;;1.88;;
79412;SDS011;68863;49.528;11.010;2023-06-24T02:47:11;5.22;;;1.70;;
79412;SDS011;68863;49.528;11.010;2023-06-24T02:48:15;7.03;;;2.83;;
79412;SDS011;68863;49.528;11.010;2023-06-24T02:49:17;4.63;;;2.00;;
79412;SDS011;68863;49.528;11.010;2023-06-24T02:50:19;5.95;;;2.50;;
79412;SDS011;68863;49.528;11.010;2023-06-24T02:51:21;7.00;;;2.42;;
79412;SDS011;68863;49.528;11.010;2023-06-24T02:52:21;5.45;;;2.22;;
79412;SDS011;68863;49.528;11.010;2023-06-24T02:53:22;6.05;;;2.22;;
79412;SDS011;68863;49.528;11.010;2023-06-24T02:54:22;5.13;;;2.08;;
79412;SDS011;68863;49.528;11.010;2023-06-24T02:55:23;5.30;;;2.03;;
79412;SDS011;68863;49.528;11.010;2023-06-24T02:56:24;5.63;;;2.67;;
79412;SDS011;68863;49.528;11.010;2023-06-24T02:57:27;5.22;;;2.25;;
79412;SDS011;68863;49.528;11.010;2023-06-24T02:58:28;5.68;;;2.33;;
79412;SDS011;68863;49.528;11.010;2023-06-24T02:59:31;6.90;;;2.30;;
79412;SDS011;68863;49.528;11.010;2023-06-24T03:00:31;5.05;;;2.20;;
79412;SDS011;68863;49.528;11.010;2023-06-24T03:01:34;7.30;;;2.40;;
79412;SDS011;68863;49.528;11.010;2023-06-24T03:02:38;6.10;;;3.03;;
79412;SDS011;68863;49.528;11.010;2023-06-24T03:03:40;6.97;;;2.70;;
79412;SDS011;68863;49.528;11.010;2023-06-24T03:04:41;6.55;;;2.92;;
79412;SDS011;68863;49.528;11.010;2023-06-24T03:05:42;6.53;;;2.70;;
79412;SDS011;68863;49.528;11.010;2023-06-24T03:06:44;5.60;;;2.30;;
79412;SDS011;68863;49.528;11.010;2023-06-24T03:07:45;5.60;;;1.92;;
79412;SDS011;68863;49.528;11.010;2023-06-24T03:08:46;5.65;;;2.25;;
79412;SDS011;68863;49.528;11.010;2023-06-24T03:09:47;7.28;;;2.70;;
79412;SDS011;68863;49.528;11.010;2023-06-24T03:10:48;7.43;;;2.60;;
79412;SDS011;68863;49.528;11.010;2023-06-24T03:11:48;6.28;;;2.83;;
79412;SDS011;68863;49.528;11.010;2023-06-24T03:12:49;6.40;;;2.72;;
79412;SDS011;68863;49.528;11.010;2023-06-24T03:13:49;7.90;;;3.05;;
79412;SDS011;68863;49.528;11.010;2023-06-24T03:14:49;5.70;;;2.40;;
79412;SDS011;68863;49.528;11.010;2023-06-24T03:15:50;6.78;;;3.03;;
79412;SDS011;68863;49.528;11.010;2023-06-24T03:16:50;5.78;;;2.58;;
79412;SDS011;68863;49.528;11.010;2023-06-24T03:17:50;7.80;;;2.97;;
79412;SDS011;68863;49.528;11.010;2023-06-24T03:18:51;6.72;;;2.80;;
79412;SDS011;68863;49.528;11.010;2023-06-24T03:19:52;6.53;;;2.70;;
79412;SDS011;68863;49.528;11.010;2023-06-24T03:20:52;6.07;;;3.08;;
79412;SDS011;68863;49.528;11.010;2023-06-24T03:21:52;8.75;;;3.28;;
79412;SDS011;68863;49.528;11.010;2023-06-24T03:22:53;6.32;;;3.10;;
79412;SDS011;68863;49.528;11.010;2023-06-24T03:23:54;6.97;;;3.65;;
79412;SDS011;68863;49.528;11.010;2023-06-24T03:24:55;6.10;;;2.45;;
79412;SDS011;68863;49.528;11.010;2023-06-24T03:25:55;6.07;;;2.83;;
79412;SDS011;68863;49.528;11.010;2023-06-24T03:26:56;6.65;;;2.80;;
79412;SDS011;68863;49.528;11.010;2023-06-24T03:27:56;5.57;;;2.05;;
79412;SDS011;68863;49.528;11.010;2023-06-24T03:28:56;5.57;;;2.50;;
79412;SDS011;68863;49.528;11.010;2023-06-24T03:29:57;6.40;;;2.45;;
79412;SDS011;68863;49.528;11.010;2023-06-24T03:30:58;7.20;;;2.63;;
79412;SDS011;68863;49.528;11.010;2023-06-24T03:31:58;6.78;;;2.47;;
79412;SDS011;68863;49.528;11.010;2023-06-24T03:32:59;5.20;;;2.45;;
79412;SDS011;68863;49.528;11.010;2023-06-24T03:33:59;5.68;;;2.38;;
79412;SDS011;68863;49.528;11.010;2023-06-24T03:34:59;6.28;;;2.35;;
79412;SDS011;68863;49.528;11.010;2023-06-24T03:36:00;5.07;;;2.60;;
79412;SDS011;68863;49.528;11.010;2023-06-24T03:37:00;6.05;;;2.45;;
79412;SDS011;68863;49.528;11.010;2023-06-24T03:38:00;6.47;;;2.65;;
79412;SDS011;68863;49.528;11.010;2023-06-24T03:39:01;5.07;;;2.08;;
79412;SDS011;68863;49.528;11.010;2023-06-24T03:40:01;5.68;;;2.53;;
79412;SDS011;68863;49.528;11.010;2023-06-24T03:41:01;5.40;;;2.20;;
79412;SDS011;68863;49.528;11.010;2023-06-24T03:42:02;5.65;;;2.63;;
79412;SDS011;68863;49.528;11.010;2023-06-24T03:43:02;5.75;;;2.40;;
79412;SDS011;68863;49.528;11.010;2023-06-24T03:44:03;5.00;;;2.22;;
79412;SDS011;68863;49.528;11.010;2023-06-24T03:45:03;5.75;;;2.40;;
79412;SDS011;68863;49.528;11.010;2023-06-24T03:46:04;5.55;;;2.38;;
79412;SDS011;68863;49.528;11.010;2023-06-24T03:47:04;5.57;;;2.75;;
79412;SDS011;68863;49.528;11.010;2023-06-24T03:48:05;5.18;;;2.33;;
79412;SDS011;68863;49.528;11.010;2023-06-24T03:49:05;6.57;;;2.78;;
79412;SDS011;68863;49.528;11.010;2023-06-24T03:50:06;6.50;;;2.80;;
79412;SDS011;68863;49.528;11.010;2023-06-24T03:51:07;5.30;;;2.30;;
79412;SDS011;68863;49.528;11.010;2023-06-24T03:52:07;6.75;;;2.42;;
79412;SDS011;68863;49.528;11.010;2023-06-24T03:53:08;5.63;;;2.30;;
79412;SDS011;68863;49.528;11.010;2023-06-24T03:54:09;6.97;;;2.63;;
79412;SDS011;68863;49.528;11.010;2023-06-24T03:55:10;5.63;;;2.40;;
79412;SDS011;68863;49.528;11.010;2023-06-24T03:56:11;5.85;;;2.47;;
79412;SDS011;68863;49.528;11.010;2023-06-24T03:57:11;6.35;;;2.65;;
79412;SDS011;68863;49.528;11.010;2023-06-24T03:58:12;6.72;;;2.50;;
79412;SDS011;68863;49.528;11.010;2023-06-24T03:59:13;5.97;;;2.95;;
79412;SDS011;68863;49.528;11.010;2023-06-24T04:00:14;7.28;;;3.08;;
79412;SDS011;68863;49.528;11.010;2023-06-24T04:01:20;6.38;;;2.65;;
79412;SDS011;68863;49.528;11.010;2023-06-24T04:02:21;5.50;;;2.50;;
79412;SDS011;68863;49.528;11.010;2023-06-24T04:03:22;7.47;;;2.92;;
79412;SDS011;68863;49.528;11.010;2023-06-24T04:04:25;6.25;;;2.92;;
79412;SDS011;68863;49.528;11.010;2023-06-24T04:05:26;6.43;;;2.90;;
79412;SDS011;68863;49.528;11.010;2023-06-24T04:06:27;5.72;;;2.45;;
79412;SDS011;68863;49.528;11.010;2023-06-24T04:07:27;5.90;;;2.85;;
79412;SDS011;68863;49.528;11.010;2023-06-24T04:08:27;7.25;;;2.47;;
79412;SDS011;68863;49.528;11.010;2023-06-24T04:09:34;5.47;;;2.45;;
79412;SDS011;68863;49.528;11.010;2023-06-24T04:10:35;5.35;;;2.70;;
79412;SDS011;68863;49.528;11.010;2023-06-24T04:11:35;7.63;;;2.85;;
79412;SDS011;68863;49.528;11.010;2023-06-24T04:12:38;6.35;;;2.95;;
79412;SDS011;68863;49.528;11.010;2023-06-24T04:13:38;5.50;;;2.80;;
79412;SDS011;68863;49.528;11.010;2023-06-24T04:14:39;6.00;;;2.83;;
79412;SDS011;68863;49.528;11.010;2023-06-24T04:15:39;6.05;;;2.70;;
79412;SDS011;68863;49.528;11.010;2023-06-24T04:16:39;7.22;;;3.15;;
79412;SDS011;68863;49.528;11.010;2023-06-24T04:17:40;5.75;;;2.58;;
79412;SDS011;68863;49.528;11.010;2023-06-24T04:18:40;6.20;;;2.60;;
79412;SDS011;68863;49.528;11.010;2023-06-24T04:19:40;7.38;;;2.90;;
79412;SDS011;68863;49.528;11.010;2023-06-24T04:20:41;6.25;;;2.83;;
79412;SDS011;68863;49.528;11.010;2023-06-24T04:21:42;6.18;;;2.83;;
79412;SDS011;68863;49.528;11.010;2023-06-24T04:22:42;5.45;;;2.40;;
79412;SDS011;68863;49.528;11.010;2023-06-24T04:23:45;5.63;;;2.90;;
79412;SDS011;68863;49.528;11.010;2023-06-24T04:24:45;6.40;;;2.53;;
79412;SDS011;68863;49.528;11.010;2023-06-24T04:25:45;6.28;;;2.78;;
79412;SDS011;68863;49.528;11.010;2023-06-24T04:26:46;5.85;;;2.85;;
79412;SDS011;68863;49.528;11.010;2023-06-24T04:27:46;7.00;;;3.30;;
79412;SDS011;68863;49.528;11.010;2023-06-24T04:28:46;6.30;;;3.25;;
79412;SDS011;68863;49.528;11.010;2023-06-24T04:29:47;7.05;;;3.20;;
79412;SDS011;68863;49.528;11.010;2023-06-24T04:30:47;6.93;;;3.30;;
79412;SDS011;68863;49.528;11.010;2023-06-24T04:31:47;6.30;;;3.22;;
79412;SDS011;68863;49.528;11.010;2023-06-24T04:32:50;7.47;;;3.20;;
79412;SDS011;68863;49.528;11.010;2023-06-24T04:33:50;7.00;;;3.40;;
79412;SDS011;68863;49.528;11.010;2023-06-24T04:34:50;8.07;;;3.07;;
79412;SDS011;68863;49.528;11.010;2023-06-24T04:35:51;5.30;;;2.70;;
79412;SDS011;68863;49.528;11.010;2023-06-24T04:36:51;6.27;;;2.53;;
79412;SDS011;68863;49.528;11.010;2023-06-24T04:37:51;6.50;;;3.10;;
79412;SDS011;68863;49.528;11.010;2023-06-24T04:38:52;7.05;;;3.45;;
79412;SDS011;68863;49.528;11.010;2023-06-24T04:39:52;7.90;;;3.17;;
79412;SDS011;68863;49.528;11.010;2023-06-24T04:40:52;6.30;;;3.28;;
79412;SDS011;68863;49.528;11.010;2023-06-24T04:41:53;7.35;;;3.30;;
79412;SDS011;68863;49.528;11.010;2023-06-24T04:42:53;6.47;;;3.70;;
79412;SDS011;68863;49.528;11.010;2023-06-24T04:43:53;7.57;;;3.80;;
79412;SDS011;68863;49.528;11.010;2023-06-24T04:44:54;7.60;;;3.67;;
79412;SDS011;68863;49.528;11.010;2023-06-24T04:45:54;7.88;;;3.35;;
79412;SDS011;68863;49.528;11.010;2023-06-24T04:46:57;7.13;;;3.85;;
79412;SDS011;68863;49.528;11.010;2023-06-24T04:47:57;8.57;;;3.60;;
79412;SDS011;68863;49.528;11.010;2023-06-24T04:48:58;8.70;;;3.77;;
79412;SDS011;68863;49.528;11.010;2023-06-24T04:49:58;8.03;;;3.50;;
79412;SDS011;68863;49.528;11.010;2023-06-24T04:50:58;8.25;;;4.30;;
79412;SDS011;68863;49.528;11.010;2023-06-24T04:52:02;7.65;;;3.40;;
79412;SDS011;68863;49.528;11.010;2023-06-24T04:53:02;7.85;;;3.55;;
79412;SDS011;68863;49.528;11.010;2023-06-24T04:54:03;7.00;;;3.30;;
79412;SDS011;68863;49.528;11.010;2023-06-24T04:55:04;7.25;;;3.50;;
79412;SDS011;68863;49.528;11.010;2023-06-24T04:56:05;7.93;;;3.67;;
79412;SDS011;68863;49.528;11.010;2023-06-24T04:57:07;9.43;;;4.10;;
79412;SDS011;68863;49.528;11.010;2023-06-24T04:58:09;7.38;;;3.72;;
79412;SDS011;68863;49.528;11.010;2023-06-24T04:59:10;7.93;;;4.25;;
79412;SDS011;68863;49.528;11.010;2023-06-24T05:00:10;8.73;;;4.45;;
79412;SDS011;68863;49.528;11.010;2023-06-24T05:01:11;7.28;;;3.75;;
79412;SDS011;68863;49.528;11.010;2023-06-24T05:02:11;7.82;;;4.00;;
79412;SDS011;68863;49.528;11.010;2023-06-24T05:03:12;7.50;;;3.17;;
79412;SDS011;68863;49.528;11.010;2023-06-24T05:04:12;8.23;;;4.30;;
79412;SDS011;68863;49.528;11.010;2023-06-24T05:05:12;8.27;;;3.70;;
79412;SDS011;68863;49.528;11.010;2023-06-24T05:06:13;7.88;;;3.60;;
79412;SDS011;68863;49.528;11.010;2023-06-24T05:07:13;7.37;;;3.80;;
79412;SDS011;68863;49.528;11.010;2023-06-24T05:08:14;7.50;;;3.58;;
79412;SDS011;68863;49.528;11.010;2023-06-24T05:09:14;7.72;;;3.80;;
79412;SDS011;68863;49.528;11.010;2023-06-24T05:10:14;7.13;;;3.35;;
79412;SDS011;68863;49.528;11.010;2023-06-24T05:11:15;9.25;;;4.30;;
79412;SDS011;68863;49.528;11.010;2023-06-24T05:12:15;7.93;;;3.58;;
79412;SDS011;68863;49.528;11.010;2023-06-24T05:13:15;8.00;;;3.47;;
79412;SDS011;68863;49.528;11.010;2023-06-24T05:14:16;9.38;;;4.05;;
79412;SDS011;68863;49.528;11.010;2023-06-24T05:15:16;8.43;;;4.10;;
79412;SDS011;68863;49.528;11.010;2023-06-24T05:16:16;8.10;;;3.78;;
79412;SDS011;68863;49.528;11.010;2023-06-24T05:17:17;7.18;;;3.60;;
79412;SDS011;68863;49.528;11.010;2023-06-24T05:18:17;7.38;;;3.63;;
79412;SDS011;68863;49.528;11.010;2023-06-24T05:19:18;7.10;;;3.70;;
79412;SDS011;68863;49.528;11.010;2023-06-24T05:20:18;8.23;;;4.60;;
79412;SDS011;68863;49.528;11.010;2023-06-24T05:21:18;8.15;;;3.90;;
79412;SDS011;68863;49.528;11.010;2023-06-24T05:22:18;8.48;;;3.78;;
79412;SDS011;68863;49.528;11.010;2023-06-24T05:23:19;7.00;;;3.65;;
79412;SDS011;68863;49.528;11.010;2023-06-24T05:24:19;8.80;;;3.72;;
79412;SDS011;68863;49.528;11.010;2023-06-24T05:25:19;8.85;;;4.25;;
79412;SDS011;68863;49.528;11.010;2023-06-24T05:26:20;8.23;;;3.92;;
79412;SDS011;68863;49.528;11.010;2023-06-24T05:27:20;8.05;;;3.85;;
79412;SDS011;68863;49.528;11.010;2023-06-24T05:28:20;7.90;;;3.38;;
79412;SDS011;68863;49.528;11.010;2023-06-24T05:29:20;7.18;;;3.70;;
79412;SDS011;68863;49.528;11.010;2023-06-24T05:30:21;7.80;;;3.88;;
79412;SDS011;68863;49.528;11.010;2023-06-24T05:31:21;8.35;;;4.68;;
79412;SDS011;68863;49.528;11.010;2023-06-24T05:32:22;7.57;;;3.63;;
79412;SDS011;68863;49.528;11.010;2023-06-24T05:33:22;8.27;;;3.78;;
79412;SDS011;68863;49.528;11.010;2023-06-24T05:34:22;8.03;;;4.00;;
79412;SDS011;68863;49.528;11.010;2023-06-24T05:35:23;8.40;;;4.05;;
79412;SDS011;68863;49.528;11.010;2023-06-24T05:36:23;9.20;;;4.63;;
79412;SDS011;68863;49.528;11.010;2023-06-24T05:37:23;8.20;;;4.07;;
79412;SDS011;68863;49.528;11.010;2023-06-24T05:38:23;8.30;;;4.03;;
79412;SDS011;68863;49.528;11.010;2023-06-24T05:39:24;8.52;;;3.90;;
79412;SDS011;68863;49.528;11.010;2023-06-24T05:40:24;8.05;;;4.05;;
79412;SDS011;68863;49.528;11.010;2023-06-24T05:41:25;9.23;;;3.95;;
79412;SDS011;68863;49.528;11.010;2023-06-24T05:42:25;8.88;;;4.50;;
79412;SDS011;68863;49.528;11.010;2023-06-24T05:43:27;8.95;;;4.20;;
79412;SDS011;68863;49.528;11.010;2023-06-24T05:44:27;7.78;;;4.13;;
79412;SDS011;68863;49.528;11.010;2023-06-24T05:45:27;8.77;;;4.25;;
79412;SDS011;68863;49.528;11.010;2023-06-24T05:46:27;8.65;;;4.35;;
79412;SDS011;68863;49.528;11.010;2023-06-24T05:47:28;7.90;;;3.70;;
79412;SDS011;68863;49.528;11.010;2023-06-24T05:48:28;8.60;;;4.30;;
79412;SDS011;68863;49.528;11.010;2023-06-24T05:49:28;8.43;;;3.88;;
79412;SDS011;68863;49.528;11.010;2023-06-24T05:50:29;7.65;;;3.72;;
79412;SDS011;68863;49.528;11.010;2023-06-24T05:51:29;8.43;;;3.97;;
79412;SDS011;68863;49.528;11.010;2023-06-24T05:52:29;8.30;;;4.03;;
79412;SDS011;68863;49.528;11.010;2023-06-24T05:53:30;8.52;;;4.47;;
79412;SDS011;68863;49.528;11.010;2023-06-24T05:54:30;8.02;;;4.03;;
79412;SDS011;68863;49.528;11.010;2023-06-24T05:55:30;8.63;;;3.92;;
79412;SDS011;68863;49.528;11.010;2023-06-24T05:56:30;7.90;;;4.13;;
79412;SDS011;68863;49.528;11.010;2023-06-24T05:57:32;7.65;;;4.10;;
79412;SDS011;68863;49.528;11.010;2023-06-24T05:58:32;8.52;;;3.95;;
79412;SDS011;68863;49.528;11.010;2023-06-24T05:59:33;8.18;;;3.97;;
79412;SDS011;68863;49.528;11.010;2023-06-24T06:00:33;7.40;;;4.07;;
79412;SDS011;68863;49.528;11.010;2023-06-24T06:01:33;7.10;;;3.70;;
79412;SDS011;68863;49.528;11.010;2023-06-24T06:02:34;6.82;;;3.15;;
79412;SDS011;68863;49.528;11.010;2023-06-24T06:03:34;8.50;;;4.32;;
79412;SDS011;68863;49.528;11.010;2023-06-24T06:04:34;7.57;;;3.70;;
79412;SDS011;68863;49.528;11.010;2023-06-24T06:05:35;7.10;;;3.53;;
79412;SDS011;68863;49.528;11.010;2023-06-24T06:06:35;8.02;;;3.83;;
79412;SDS011;68863;49.528;11.010;2023-06-24T06:07:35;8.13;;;3.63;;
79412;SDS011;68863;49.528;11.010;2023-06-24T06:08:38;7.43;;;3.50;;
79412;SDS011;68863;49.528;11.010;2023-06-24T06:09:38;7.15;;;3.63;;
79412;SDS011;68863;49.528;11.010;2023-06-24T06:10:38;8.57;;;3.95;;
79412;SDS011;68863;49.528;11.010;2023-06-24T06:11:39;8.60;;;4.00;;
79412;SDS011;68863;49.528;11.010;2023-06-24T06:12:39;8.65;;;4.45;;
79412;SDS011;68863;49.528;11.010;2023-06-24T06:13:39;9.63;;;4.40;;
79412;SDS011;68863;49.528;11.010;2023-06-24T06:14:40;8.18;;;3.78;;
79412;SDS011;68863;49.528;11.010;2023-06-24T06:15:40;8.60;;;3.92;;
79412;SDS011;68863;49.528;11.010;2023-06-24T06:16:40;8.68;;;4.03;;